createdAt,value
2019-03-10T00:00:00.360Z,614.77
2019-03-10T00:02:29.369Z,773.53
2019-03-10T00:04:58.551Z,818.10
2019-03-10T00:07:27.876Z,764.83
2019-03-10T00:10:07.738Z,791.97
2019-03-10T00:13:41.233Z,895.47
2019-03-10T00:16:13.684Z,775.10
2019-03-10T00:18:42.971Z,780.97
2019-03-10T00:31:41.989Z,381.13
2019-03-10T00:34:10.820Z,531.60
2019-03-10T00:36:39.720Z,581.50
2019-03-10T00:40:00.606Z,585.97
2019-03-10T00:43:23.173Z,311.53
2019-03-10T00:46:19.911Z,307.23
2019-03-10T00:49:11.218Z,378.33
2019-03-10T00:52:15.767Z,542.07
2019-03-10T00:54:47.832Z,382.77
2019-03-10T00:57:16.586Z,385.07
2019-03-10T00:59:54.813Z,414.37
2019-03-10T01:02:23.601Z,350.80
2019-03-10T01:04:52.443Z,443.87
2019-03-10T01:07:21.359Z,439.50
2019-03-10T01:09:59.521Z,426.93
2019-03-10T01:12:28.735Z,241.07
2019-03-10T01:14:57.683Z,330.43
2019-03-10T01:17:26.566Z,291.23
2019-03-10T01:20:04.851Z,387.47
2019-03-10T01:22:33.758Z,292.03
2019-03-10T01:25:06.742Z,322.13
2019-03-10T01:27:35.781Z,368.17
2019-03-10T01:30:16.767Z,416.77
2019-03-10T01:33:31.909Z,295.80
2019-03-10T01:36:00.898Z,240.83
2019-03-10T01:38:29.677Z,427.50
2019-03-10T01:41:07.558Z,488.43
2019-03-10T01:43:37.793Z,254.73
2019-03-10T01:46:06.594Z,281.43
2019-03-10T01:48:35.785Z,599.50
2019-03-10T01:51:14.040Z,296.93
2019-03-10T01:53:42.816Z,423.03
2019-03-10T01:56:11.669Z,445.80
2019-03-10T01:58:40.522Z,347.27
2019-03-10T02:01:18.669Z,239.17
2019-03-10T02:03:47.458Z,366.17
2019-03-10T02:06:25.545Z,348.87
2019-03-10T02:08:54.378Z,483.27
2019-03-10T02:11:23.311Z,590.80
2019-03-10T02:13:54.556Z,442.10
2019-03-10T02:19:09.792Z,594.10
2019-03-10T02:21:38.588Z,380.40
2019-03-10T02:24:09.515Z,435.20
2019-03-10T02:29:21.466Z,232.00
2019-03-10T02:31:52.102Z,543.60
2019-03-10T02:34:21.264Z,387.53
2019-03-10T02:37:11.492Z,655.83
2019-03-10T02:39:40.259Z,718.27
2019-03-10T02:42:09.017Z,731.83
2019-03-10T02:44:40.915Z,811.20
2019-03-10T02:47:18.789Z,617.40
2019-03-10T02:49:47.607Z,815.33
2019-03-10T02:52:16.473Z,627.37
2019-03-10T02:54:47.705Z,832.27
2019-03-10T03:00:00.741Z,904.13
2019-03-10T03:02:32.485Z,1037.97
2019-03-10T03:05:01.292Z,852.87
2019-03-10T03:10:15.904Z,935.60
2019-03-10T03:12:47.602Z,1064.30
2019-03-10T03:15:16.359Z,976.43
2019-03-10T03:17:54.549Z,1115.67
2019-03-10T03:20:23.577Z,1037.20
2019-03-10T03:22:52.377Z,899.83
2019-03-10T03:25:24.082Z,1071.93
2019-03-10T03:28:02.612Z,787.17
2019-03-10T03:30:31.328Z,779.07
2019-03-10T03:33:00.291Z,856.27
2019-03-10T03:35:41.227Z,1061.80
2019-03-10T03:38:09.974Z,955.20
2019-03-10T03:40:40.080Z,998.10
2019-03-10T03:43:10.911Z,864.60
2019-03-10T03:45:39.702Z,1018.83
2019-03-10T03:48:18.308Z,906.17
2019-03-10T03:50:47.014Z,721.70
2019-03-10T03:53:15.835Z,825.90
2019-03-10T03:55:44.823Z,859.93
2019-03-10T04:01:19.830Z,632.40
2019-03-10T04:03:49.030Z,653.53
2019-03-10T04:09:01.519Z,880.03
2019-03-10T04:11:30.889Z,805.93
2019-03-10T04:13:59.996Z,1019.60
2019-03-10T04:16:40.119Z,1077.23
2019-03-10T05:11:00.552Z,978.20
2019-03-10T05:13:29.437Z,1053.37
2019-03-10T05:15:58.574Z,1118.33
2019-03-10T05:18:38.525Z,1097.50
2019-03-10T05:21:07.448Z,1233.57
2019-03-10T05:23:39.019Z,1291.80
2019-03-10T05:26:08.049Z,1203.33
2019-03-10T05:28:47.000Z,1209.03
2019-03-10T05:31:15.852Z,1161.77
2019-03-10T05:33:44.697Z,1249.97
2019-03-10T05:39:00.136Z,1304.67
2019-03-10T05:41:29.181Z,1226.80
2019-03-10T05:44:00.137Z,1298.30
2019-03-10T05:46:31.928Z,1241.60
2019-03-10T05:49:13.181Z,1178.77
2019-03-10T05:51:42.097Z,1174.43
2019-03-10T05:54:10.758Z,1138.23
2019-03-10T05:56:39.470Z,1064.10
2019-03-10T05:59:17.316Z,1050.53
2019-03-10T06:01:46.583Z,1025.07
2019-03-10T06:04:15.522Z,964.43
2019-03-10T06:06:44.604Z,988.00
2019-03-10T06:09:22.456Z,978.63
2019-03-10T06:11:51.133Z,1052.13
2019-03-10T06:14:20.492Z,1012.43
2019-03-10T06:16:49.255Z,1049.13
2019-03-10T06:19:27.894Z,954.90
2019-03-10T06:21:57.008Z,967.07
2019-03-10T06:24:26.443Z,1102.37
2019-03-10T06:26:55.192Z,1064.47
2019-03-10T06:29:34.514Z,1031.80
2019-03-10T06:32:03.513Z,1067.10
2019-03-10T06:34:32.772Z,1047.83
2019-03-10T06:37:01.529Z,977.77
2019-03-10T06:39:39.789Z,977.70
2019-03-10T06:42:08.542Z,1009.80
2019-03-10T06:44:37.431Z,1001.37
2019-03-10T06:47:09.766Z,963.93
2019-03-10T06:49:48.187Z,1019.17
2019-03-10T06:52:17.183Z,1014.17
2019-03-10T06:54:46.541Z,1075.70
2019-03-10T06:57:15.980Z,1015.00
2019-03-10T06:59:53.882Z,1050.57
2019-03-10T07:02:23.588Z,997.93
2019-03-10T07:04:52.810Z,1043.27
2019-03-10T07:07:21.878Z,991.77
2019-03-10T07:10:00.043Z,1054.63
2019-03-10T07:12:29.134Z,1082.77
2019-03-10T07:15:00.755Z,1047.60
2019-03-10T07:17:29.780Z,1028.27
2019-03-10T07:20:10.932Z,1076.00
2019-03-10T07:22:40.140Z,1100.57
2019-03-10T07:25:09.435Z,1137.87
2019-03-10T07:27:47.058Z,1121.30
2019-03-10T07:30:42.185Z,1146.10
2019-03-10T07:33:18.230Z,1139.70
2019-03-10T07:36:19.104Z,1110.57
2019-03-10T07:39:06.420Z,1115.47
2019-03-10T07:44:46.041Z,1131.03
2019-03-10T07:47:32.850Z,1160.63
2019-03-10T07:50:48.348Z,1127.20
2019-03-10T07:53:25.518Z,1114.50
2019-03-10T07:56:04.168Z,458.70
2019-03-10T07:58:51.839Z,182.50
2019-03-10T08:04:48.885Z,87.23
2019-03-10T08:07:24.541Z,215.70
2019-03-10T08:10:27.626Z,371.37
2019-03-10T08:13:11.163Z,407.37
2019-03-10T08:15:55.013Z,355.57
2019-03-10T08:18:48.796Z,448.50
2019-03-10T08:24:33.661Z,217.60
2019-03-10T08:27:20.520Z,446.73
2019-03-10T08:30:07.365Z,377.77
2019-03-10T08:33:11.191Z,452.43
2019-03-10T08:35:56.439Z,226.57
2019-03-10T08:38:42.321Z,428.03
2019-03-10T08:41:37.587Z,366.70
2019-03-10T08:44:16.841Z,574.27
2019-03-10T08:47:06.527Z,519.80
2019-03-10T08:50:00.303Z,618.13
2019-03-10T08:52:59.196Z,611.73
2019-03-10T08:55:56.412Z,673.83
2019-03-10T08:58:56.657Z,589.13
2019-03-10T09:04:49.577Z,629.87
2019-03-10T09:07:49.890Z,602.33
2019-03-10T09:10:47.381Z,488.63
2019-03-10T09:13:31.974Z,479.60
2019-03-10T09:16:32.728Z,594.33
2019-03-10T09:19:29.576Z,572.73
2019-03-10T09:25:14.572Z,494.93
2019-03-10T10:02:58.662Z,790.47
2019-03-10T10:05:46.479Z,1002.67
2019-03-10T10:08:50.372Z,1046.50
2019-03-10T10:11:34.163Z,687.57
2019-03-10T10:14:22.467Z,953.67
2019-03-10T10:17:13.435Z,1023.57
2019-03-10T10:20:09.139Z,752.70
2019-03-10T10:22:49.143Z,1441.50
2019-03-10T10:25:23.248Z,1063.73
2019-03-10T10:31:10.296Z,1362.80
2019-03-10T10:33:57.237Z,1999.90
2019-03-10T10:36:43.397Z,1855.83
2019-03-10T10:39:35.769Z,1958.00
2019-03-10T10:42:22.746Z,1004.60
2019-03-10T10:45:00.037Z,1999.90
2019-03-10T10:47:51.210Z,1999.90
2019-03-10T10:50:26.903Z,1999.90
2019-03-10T10:53:14.806Z,1999.90
2019-03-10T10:56:18.038Z,1999.90
2019-03-10T10:59:15.552Z,1999.90
2019-03-10T11:02:03.761Z,1201.93
2019-03-10T11:04:54.592Z,1232.90
2019-03-10T11:07:59.555Z,1999.90
2019-03-10T11:14:19.012Z,1999.90
2019-03-10T11:17:13.061Z,1999.90
2019-03-10T11:20:19.232Z,1999.90
2019-03-10T11:23:00.314Z,1999.90
2019-03-10T11:25:51.258Z,1999.90
2019-03-10T11:28:45.428Z,1999.90
2019-03-10T11:31:29.774Z,1999.90
2019-03-10T11:34:23.527Z,1999.90
2019-03-10T11:37:26.877Z,1999.90
2019-03-10T11:40:22.647Z,1999.90
2019-03-10T11:43:16.152Z,1999.90
2019-03-10T11:45:57.565Z,1999.90
2019-03-10T11:48:51.657Z,1999.90
2019-03-10T11:51:27.939Z,1999.90
2019-03-10T11:54:15.870Z,1999.90
2019-03-10T11:57:03.208Z,1999.90
2019-03-10T12:00:00.654Z,1999.90
2019-03-10T12:02:44.465Z,1999.90
2019-03-10T12:05:38.138Z,1999.90
2019-03-10T12:08:31.101Z,1999.90
2019-03-10T12:11:09.427Z,1999.90
2019-03-10T12:13:38.639Z,1787.47
2019-03-10T12:16:08.743Z,1732.20
2019-03-10T12:18:38.811Z,1999.90
2019-03-10T12:23:42.320Z,1999.90
2019-03-10T12:26:11.255Z,1999.90
2019-03-10T12:28:41.632Z,1999.90
2019-03-10T12:31:20.096Z,1980.23
2019-03-10T12:33:51.361Z,1825.20
2019-03-10T12:36:20.631Z,1999.90
2019-03-10T12:38:49.592Z,1635.80
2019-03-10T12:41:28.209Z,1999.90
2019-03-10T12:43:57.354Z,1999.90
2019-03-10T12:46:26.751Z,1451.83
2019-03-10T12:48:55.966Z,1999.90
2019-03-10T12:51:24.966Z,1999.90
2019-03-10T12:53:54.220Z,1762.57
2019-03-10T12:56:26.848Z,1999.90
2019-03-10T12:58:55.829Z,1946.87
2019-03-10T13:01:45.420Z,1999.90
2019-03-10T13:04:14.333Z,1999.90
2019-03-10T13:06:44.610Z,1999.90
2019-03-10T13:09:13.542Z,1999.90
2019-03-10T13:14:17.148Z,1999.90
2019-03-10T13:16:47.705Z,1511.30
2019-03-10T13:19:17.070Z,1622.53
2019-03-10T13:21:55.125Z,1999.90
2019-03-10T13:24:33.347Z,1999.90
2019-03-10T13:27:02.417Z,1999.90
2019-03-10T13:29:31.078Z,1999.90
2019-03-10T13:32:02.482Z,1999.90
2019-03-10T13:34:39.998Z,1999.90
2019-03-10T13:37:09.148Z,1685.67
2019-03-10T13:39:38.533Z,1999.90
2019-03-10T13:42:07.317Z,1999.90
2019-03-10T13:47:20.226Z,1999.90
2019-03-10T13:49:49.041Z,1999.90
2019-03-10T13:52:18.003Z,1999.90
2019-03-10T13:54:56.532Z,1999.90
2019-03-10T13:57:25.645Z,1999.90
2019-03-10T13:59:54.792Z,1999.90
2019-03-10T14:02:23.577Z,1654.93
2019-03-10T14:05:10.201Z,1841.60
2019-03-10T14:07:39.591Z,1999.90
2019-03-10T14:10:10.585Z,1999.90
2019-03-10T14:12:40.111Z,1421.83
2019-03-10T14:15:18.100Z,1999.90
2019-03-10T14:17:47.300Z,1530.30
2019-03-10T14:20:16.133Z,1999.90
2019-03-10T14:22:45.108Z,1999.90
2019-03-10T14:25:26.243Z,1999.90
2019-03-10T14:27:55.260Z,1999.90
2019-03-10T14:30:24.566Z,1609.60
2019-03-10T14:32:53.980Z,1999.90
2019-03-10T14:35:31.693Z,1999.90
2019-03-10T14:38:00.982Z,1992.87
2019-03-10T14:40:30.712Z,1772.23
2019-03-10T14:43:02.776Z,1826.90
2019-03-10T14:45:40.831Z,1999.90
2019-03-10T14:48:09.755Z,1266.97
2019-03-10T14:50:38.758Z,1999.90
2019-03-10T14:53:07.782Z,1999.90
2019-03-10T14:55:45.612Z,1999.90
2019-03-10T14:58:15.350Z,1999.90
2019-03-10T15:00:44.413Z,1999.90
2019-03-10T15:03:13.197Z,1999.90
2019-03-10T15:05:54.089Z,1999.90
2019-03-10T15:08:22.909Z,1807.63
2019-03-10T15:10:51.769Z,1999.90
2019-03-10T15:13:20.765Z,1999.90
2019-03-10T15:15:58.749Z,1999.90
2019-03-10T15:18:27.415Z,1999.90
2019-03-10T15:20:56.135Z,1999.90
2019-03-10T15:23:24.816Z,1109.87
2019-03-10T15:26:03.052Z,1927.37
2019-03-10T15:28:32.023Z,1999.90
2019-03-10T15:31:02.978Z,1999.90
2019-03-10T15:33:31.990Z,1999.90
2019-03-10T15:38:46.049Z,1999.90
2019-03-10T15:41:18.025Z,1999.90
2019-03-10T15:43:56.431Z,1999.90
2019-03-10T15:46:25.504Z,1999.90
2019-03-10T15:48:54.290Z,1782.73
2019-03-10T15:51:23.405Z,1999.90
2019-03-10T15:54:02.623Z,1858.00
2019-03-10T15:56:33.574Z,1347.63
2019-03-10T15:59:02.346Z,1771.23
2019-03-10T16:01:31.133Z,1441.53
2019-03-10T16:04:11.508Z,1999.90
2019-03-10T16:06:40.479Z,1999.90
2019-03-10T16:09:09.202Z,1322.80
2019-03-10T16:11:38.963Z,1999.90
2019-03-10T16:14:16.848Z,1999.90
2019-03-10T16:16:46.636Z,1999.90
2019-03-10T16:19:17.727Z,1362.87
2019-03-10T16:21:46.734Z,1999.90
2019-03-10T16:24:24.578Z,1999.90
2019-03-10T16:26:53.466Z,1999.90
2019-03-10T16:29:24.458Z,1162.40
2019-03-10T16:31:53.519Z,1901.33
2019-03-10T16:37:06.676Z,1999.90
2019-03-10T16:42:13.623Z,1999.90
2019-03-10T16:44:41.914Z,1999.90
2019-03-10T16:47:11.070Z,1999.90
2019-03-10T16:49:50.686Z,1999.90
2019-03-10T16:52:19.415Z,1999.90
2019-03-10T16:54:48.350Z,1999.90
2019-03-10T16:57:17.149Z,1999.90
2019-03-10T16:59:54.990Z,1999.90
2019-03-10T17:02:23.813Z,1999.90
2019-03-10T17:04:53.146Z,1999.90
2019-03-10T17:07:21.861Z,1999.90
2019-03-10T17:09:59.731Z,1966.67
2019-03-10T17:12:28.663Z,1999.90
2019-03-10T17:14:58.078Z,1999.90
2019-03-10T17:17:27.391Z,1999.90
2019-03-10T17:19:56.608Z,1999.90
2019-03-10T17:22:25.444Z,1999.90
2019-03-10T17:24:54.446Z,1999.90
2019-03-10T17:27:23.410Z,1447.63
2019-03-10T17:30:01.445Z,1999.90
2019-03-10T17:32:30.329Z,1999.90
2019-03-10T17:34:59.421Z,1999.90
2019-03-10T17:37:30.711Z,1967.40
2019-03-10T17:39:59.894Z,1402.63
2019-03-10T17:42:28.881Z,1860.13
2019-03-10T17:45:01.106Z,1999.90
2019-03-10T17:47:30.337Z,1979.17
2019-03-10T17:50:11.523Z,1999.90
2019-03-10T17:52:40.841Z,1999.90
2019-03-10T17:55:10.221Z,1999.90
2019-03-10T17:57:39.347Z,1999.90
2019-03-10T18:02:45.572Z,1867.07
2019-03-10T18:05:14.875Z,1987.93
2019-03-10T18:07:44.280Z,1999.90
2019-03-10T18:10:13.888Z,1999.90
2019-03-10T18:12:44.154Z,1999.90
2019-03-10T18:15:16.260Z,1999.90
2019-03-10T18:17:46.554Z,1999.90
2019-03-10T18:20:31.391Z,1999.90
2019-03-10T18:23:03.860Z,1562.27
2019-03-10T18:25:34.885Z,1999.90
2019-03-10T18:28:06.135Z,1441.27
2019-03-10T18:33:25.899Z,1661.97
2019-03-10T18:36:08.576Z,1696.50
2019-03-10T18:38:58.258Z,1873.27
2019-03-10T18:41:27.785Z,1999.90
2019-03-10T18:43:56.980Z,1445.57
2019-03-10T18:46:26.527Z,1999.90
2019-03-10T18:49:10.663Z,918.33
2019-03-10T18:51:41.542Z,1098.97
2019-03-10T18:54:10.600Z,1150.07
2019-03-10T18:56:39.586Z,902.40
2019-03-10T18:59:18.258Z,869.70
2019-03-10T19:01:55.399Z,1021.10
2019-03-10T19:04:24.318Z,930.40
2019-03-10T19:06:53.044Z,1607.63
2019-03-10T19:09:31.194Z,1999.90
2019-03-10T19:12:00.809Z,676.17
2019-03-10T19:14:29.577Z,611.03
2019-03-10T19:16:59.273Z,1905.00
2019-03-10T19:19:39.524Z,799.00
2019-03-10T19:22:08.501Z,826.87
2019-03-10T19:24:38.796Z,723.07
2019-03-10T19:27:07.956Z,810.53
2019-03-10T19:29:46.204Z,1425.90
2019-03-10T19:32:15.283Z,1759.60
2019-03-10T19:34:44.782Z,532.93
2019-03-10T19:37:16.075Z,537.13
2019-03-10T19:39:54.284Z,410.73
2019-03-10T19:42:25.786Z,1251.53
2019-03-10T19:44:56.716Z,531.10
2019-03-10T19:47:26.308Z,530.23
2019-03-10T19:52:44.527Z,1999.90
2019-03-10T19:55:13.885Z,787.33
2019-03-10T19:57:43.070Z,1668.90
2019-03-10T20:02:59.646Z,458.67
2019-03-10T20:05:30.012Z,614.87
2019-03-10T20:07:58.933Z,482.13
2019-03-10T20:10:37.719Z,534.50
2019-03-10T20:13:07.906Z,495.23
2019-03-10T20:15:38.322Z,1891.03
2019-03-10T20:18:07.811Z,809.07
2019-03-10T20:20:47.326Z,502.50
2019-03-10T20:23:16.309Z,651.47
2019-03-10T20:25:50.720Z,543.53
2019-03-10T20:28:20.339Z,878.07
2019-03-10T20:30:58.184Z,1999.90
2019-03-10T20:33:26.978Z,1999.90
2019-03-10T20:35:55.828Z,1999.90
2019-03-10T20:38:25.402Z,1367.83
2019-03-10T20:41:03.517Z,1397.87
2019-03-10T20:43:32.337Z,1278.03
2019-03-10T20:46:01.392Z,1726.20
2019-03-10T20:48:30.711Z,1253.67
2019-03-10T20:51:09.144Z,1049.00
2019-03-10T20:53:37.922Z,828.57
2019-03-10T20:56:07.871Z,723.83
2019-03-10T20:58:38.883Z,1983.33
2019-03-10T21:01:17.009Z,526.50
2019-03-10T21:03:46.075Z,1206.90
2019-03-10T21:06:15.248Z,356.63
2019-03-10T21:08:45.726Z,329.13
2019-03-10T21:11:23.460Z,718.97
2019-03-10T21:13:52.669Z,522.80
2019-03-10T21:16:22.046Z,1150.03
2019-03-10T21:18:54.313Z,689.73
2019-03-10T21:21:33.070Z,1448.90
2019-03-10T21:24:02.127Z,1709.83
2019-03-10T21:26:31.350Z,946.83
2019-03-10T21:29:00.795Z,759.40
2019-03-10T21:31:39.202Z,1084.63
2019-03-10T21:34:08.435Z,662.00
2019-03-10T21:36:37.418Z,1603.57
2019-03-10T21:39:06.701Z,586.13
2019-03-10T21:41:45.415Z,1033.07
2019-03-10T21:44:25.811Z,302.80
2019-03-10T21:46:46.280Z,1589.60
2019-03-10T21:49:16.241Z,305.43
2019-03-10T21:54:30.597Z,223.43
2019-03-10T21:56:59.789Z,394.97
2019-03-10T21:59:29.248Z,504.30
2019-03-10T22:02:07.678Z,278.73
2019-03-10T22:04:36.584Z,561.50
2019-03-10T22:07:47.184Z,647.97
2019-03-10T22:10:26.807Z,368.80
2019-03-10T22:12:58.830Z,1647.43
2019-03-10T22:15:27.686Z,948.53
2019-03-10T22:17:56.881Z,271.07
2019-03-10T22:20:25.855Z,1445.17
2019-03-10T22:23:04.210Z,1024.13
2019-03-10T22:25:33.252Z,1686.77
2019-03-10T22:28:02.619Z,809.03
2019-03-10T22:30:32.571Z,839.03
2019-03-10T22:33:03.491Z,495.80
2019-03-10T22:35:32.272Z,608.50
2019-03-10T22:38:01.322Z,1455.07
2019-03-10T22:40:30.431Z,1725.50
2019-03-10T22:43:09.049Z,510.93
2019-03-10T22:45:41.704Z,470.93
2019-03-10T22:48:10.573Z,1000.30
2019-03-10T22:50:39.782Z,293.53
2019-03-10T22:53:18.359Z,228.43
2019-03-10T22:55:47.870Z,179.13
2019-03-10T22:58:17.410Z,276.90
2019-03-10T23:00:52.107Z,710.83
2019-03-10T23:03:33.018Z,539.07
2019-03-10T23:06:02.207Z,945.57
2019-03-10T23:08:34.366Z,724.93
2019-03-10T23:11:03.669Z,1305.20
2019-03-10T23:13:41.672Z,492.07
2019-03-10T23:16:10.773Z,302.00
2019-03-10T23:18:39.979Z,683.50
2019-03-10T23:21:09.443Z,298.27
2019-03-10T23:23:48.297Z,177.43
2019-03-10T23:26:17.702Z,361.53
2019-03-10T23:28:46.986Z,1091.50
2019-03-10T23:31:16.845Z,200.43
2019-03-10T23:33:54.714Z,479.20
2019-03-10T23:36:24.206Z,753.30
2019-03-10T23:38:53.159Z,1425.27
2019-03-10T23:41:22.413Z,341.23
2019-03-10T23:44:00.100Z,655.17
2019-03-10T23:46:31.767Z,808.97
2019-03-10T23:49:00.635Z,1999.90
2019-03-10T23:51:30.358Z,981.33
2019-03-10T23:54:08.628Z,930.63
2019-03-10T23:56:37.579Z,1740.60
2019-03-10T23:59:07.692Z,931.40
